createdAt,value
2023-05-05T00:01:16.250Z,3.13
2023-05-05T00:03:43.200Z,4.03
2023-05-05T00:06:10.123Z,3.23
2023-05-05T00:08:37.364Z,3.63
2023-05-05T00:11:04.251Z,3.25
2023-05-05T00:13:31.529Z,3.65
2023-05-05T00:15:58.301Z,3.40
2023-05-05T00:18:25.470Z,3.07
2023-05-05T00:20:52.442Z,3.15
2023-05-05T00:23:20.264Z,2.22
2023-05-05T00:25:47.141Z,3.15
2023-05-05T00:28:14.082Z,2.78
2023-05-05T00:30:41.566Z,3.97
2023-05-05T00:33:09.828Z,3.25
2023-05-05T00:35:36.761Z,3.50
2023-05-05T00:38:03.730Z,2.63
2023-05-05T00:40:31.247Z,3.38
2023-05-05T00:42:58.158Z,2.30
2023-05-05T00:45:26.336Z,3.58
2023-05-05T00:47:59.018Z,3.22
2023-05-05T00:50:31.386Z,2.78
2023-05-05T00:53:02.442Z,2.88
2023-05-05T00:55:33.736Z,4.47
2023-05-05T00:58:02.338Z,3.40
2023-05-05T01:00:30.910Z,4.60
2023-05-05T01:02:59.835Z,3.42
2023-05-05T01:05:42.448Z,2.60
2023-05-05T01:08:43.332Z,3.93
2023-05-05T01:11:18.648Z,2.85
2023-05-05T01:14:00.993Z,4.72
2023-05-05T01:16:31.337Z,4.25
2023-05-05T01:19:01.210Z,3.47
2023-05-05T01:21:33.711Z,3.10
2023-05-05T01:24:15.458Z,2.92
2023-05-05T01:27:19.784Z,3.80
2023-05-05T01:30:05.470Z,2.42
2023-05-05T01:32:38.700Z,3.42
2023-05-05T01:35:38.023Z,3.37
2023-05-05T01:38:22.363Z,2.88
2023-05-05T01:40:58.057Z,3.30
2023-05-05T01:43:29.958Z,3.47
2023-05-05T01:45:59.437Z,3.15
2023-05-05T01:48:26.728Z,3.83
2023-05-05T01:50:54.287Z,3.95
2023-05-05T01:53:24.397Z,4.25
2023-05-05T01:55:54.196Z,3.10
2023-05-05T01:58:23.643Z,3.63
2023-05-05T02:00:51.778Z,4.73
2023-05-05T02:03:20.913Z,3.20
2023-05-05T02:05:50.269Z,5.63
2023-05-05T02:08:17.929Z,3.38
2023-05-05T02:10:47.285Z,2.70
2023-05-05T02:13:15.191Z,3.60
2023-05-05T02:15:44.303Z,3.10
2023-05-05T02:18:11.771Z,3.97
2023-05-05T02:20:40.454Z,3.53
2023-05-05T02:23:08.438Z,3.05
2023-05-05T02:25:50.497Z,3.33
2023-05-05T02:28:35.093Z,3.17
2023-05-05T02:31:05.991Z,4.07
2023-05-05T02:33:35.287Z,3.45
2023-05-05T02:36:11.480Z,4.05
2023-05-05T02:38:53.206Z,3.43
2023-05-05T02:41:23.737Z,2.92
2023-05-05T02:43:54.147Z,3.22
2023-05-05T02:46:21.901Z,2.70
2023-05-05T02:48:48.717Z,3.40
2023-05-05T02:51:15.612Z,2.97
2023-05-05T02:53:42.779Z,3.08
2023-05-05T02:56:14.880Z,5.18
2023-05-05T02:59:00.291Z,3.33
2023-05-05T03:01:54.874Z,3.25
2023-05-05T03:04:37.389Z,3.03
2023-05-05T03:07:12.235Z,3.53
2023-05-05T03:09:46.778Z,4.13
2023-05-05T03:12:21.225Z,4.30
2023-05-05T03:15:15.431Z,3.08
2023-05-05T03:17:44.381Z,3.50
2023-05-05T03:20:12.752Z,4.75
2023-05-05T03:22:42.580Z,3.97
2023-05-05T03:25:13.038Z,3.85
2023-05-05T03:27:40.999Z,5.68
2023-05-05T03:30:09.657Z,4.43
2023-05-05T03:32:44.766Z,4.55
2023-05-05T03:35:11.784Z,4.25
2023-05-05T03:37:38.825Z,4.18
2023-05-05T03:40:06.345Z,5.45
2023-05-05T03:42:33.568Z,3.90
2023-05-05T03:45:00.372Z,5.47
2023-05-05T03:47:28.107Z,3.47
2023-05-05T03:49:56.582Z,5.57
2023-05-05T03:52:23.377Z,4.35
2023-05-05T03:54:50.540Z,5.60
2023-05-05T03:57:18.372Z,5.60
2023-05-05T03:59:45.216Z,5.82
2023-05-05T04:02:12.896Z,3.80
2023-05-05T04:04:40.299Z,3.63
2023-05-05T04:07:07.229Z,4.73
2023-05-05T04:09:34.038Z,4.13
2023-05-05T04:12:00.981Z,5.50
2023-05-05T04:14:28.037Z,4.95
2023-05-05T04:16:54.949Z,5.20
2023-05-05T04:19:22.587Z,4.57
2023-05-05T04:21:49.548Z,5.90
2023-05-05T04:24:17.150Z,4.28
2023-05-05T04:26:44.858Z,4.97
2023-05-05T04:29:12.018Z,5.50
2023-05-05T04:31:39.517Z,4.77
2023-05-05T04:34:06.473Z,4.72
2023-05-05T04:36:33.512Z,3.60
2023-05-05T04:39:00.690Z,6.47
2023-05-05T04:41:30.104Z,4.63
2023-05-05T04:43:58.101Z,5.23
2023-05-05T04:46:25.747Z,6.57
2023-05-05T04:48:52.685Z,7.03
2023-05-05T04:51:20.933Z,5.43
2023-05-05T04:53:47.772Z,13.50
2023-05-05T04:56:14.708Z,8.60
2023-05-05T04:58:41.707Z,8.32
2023-05-05T05:01:08.554Z,8.73
2023-05-05T05:03:35.492Z,6.30
2023-05-05T05:06:02.579Z,5.45
2023-05-05T05:08:30.372Z,7.00
2023-05-05T05:10:57.181Z,5.70
2023-05-05T05:13:24.655Z,6.53
2023-05-05T05:15:51.956Z,6.20
2023-05-05T05:18:18.872Z,7.53
2023-05-05T05:20:47.508Z,5.53
2023-05-05T05:23:15.377Z,6.55
2023-05-05T05:25:44.319Z,7.70
2023-05-05T05:28:12.770Z,6.75
2023-05-05T05:30:45.894Z,6.75
2023-05-05T05:33:12.874Z,5.87
2023-05-05T05:35:40.705Z,6.93
2023-05-05T05:38:08.289Z,5.93
2023-05-05T05:40:35.485Z,7.40
2023-05-05T05:43:02.720Z,7.45
2023-05-05T05:45:30.054Z,7.67
2023-05-05T05:47:57.024Z,7.75
2023-05-05T05:50:24.217Z,7.00
2023-05-05T05:52:51.047Z,7.25
2023-05-05T05:55:18.875Z,6.03
2023-05-05T05:57:45.625Z,9.43
2023-05-05T06:00:14.528Z,7.97
2023-05-05T06:02:46.266Z,9.90
2023-05-05T06:05:17.244Z,11.68
2023-05-05T06:07:45.638Z,8.50
2023-05-05T06:10:26.724Z,7.73
2023-05-05T06:12:59.640Z,7.97
2023-05-05T06:15:27.640Z,12.02
2023-05-05T06:17:54.758Z,7.57
2023-05-05T06:20:22.750Z,6.97
2023-05-05T06:22:49.563Z,8.30
2023-05-05T06:25:17.647Z,10.18
2023-05-05T06:27:45.249Z,8.48
2023-05-05T06:30:12.829Z,8.98
2023-05-05T06:32:39.615Z,8.27
2023-05-05T06:35:07.100Z,11.27
2023-05-05T06:37:33.962Z,10.77
2023-05-05T06:40:00.774Z,10.30
2023-05-05T06:42:27.771Z,10.32
2023-05-05T06:44:57.504Z,9.77
2023-05-05T06:47:24.419Z,10.97
2023-05-05T06:49:51.325Z,11.15
2023-05-05T06:52:18.066Z,9.30
2023-05-05T06:54:44.916Z,9.45
2023-05-05T06:57:11.834Z,9.57
2023-05-05T06:59:39.099Z,10.13
2023-05-05T07:02:06.414Z,9.13
2023-05-05T07:04:33.188Z,10.73
2023-05-05T07:07:00.001Z,10.02
2023-05-05T07:09:26.906Z,9.02
2023-05-05T07:11:53.608Z,9.83
2023-05-05T07:14:22.710Z,10.05
2023-05-05T07:16:51.047Z,12.90
2023-05-05T07:19:17.906Z,10.38
2023-05-05T07:21:45.055Z,8.68
2023-05-05T07:24:11.828Z,9.33
2023-05-05T07:26:38.752Z,8.95
2023-05-05T07:29:05.662Z,9.77
2023-05-05T07:31:32.870Z,9.60
2023-05-05T07:33:59.664Z,8.23
2023-05-05T07:36:26.928Z,8.23
2023-05-05T07:38:54.479Z,9.35
2023-05-05T07:41:21.935Z,9.30
2023-05-05T07:43:48.905Z,8.95
2023-05-05T07:46:15.784Z,7.80
2023-05-05T07:48:42.880Z,7.50
2023-05-05T07:51:10.151Z,8.40
2023-05-05T07:53:37.396Z,7.05
2023-05-05T07:56:04.339Z,11.00
2023-05-05T07:58:31.285Z,9.60
2023-05-05T08:00:59.351Z,11.20
2023-05-05T08:03:26.624Z,10.68
2023-05-05T08:05:54.728Z,8.95
2023-05-05T08:08:21.956Z,9.05
2023-05-05T08:10:49.930Z,9.50
2023-05-05T08:13:16.878Z,7.40
2023-05-05T08:15:43.816Z,8.95
2023-05-05T08:18:10.713Z,11.30
2023-05-05T08:20:37.686Z,10.30
2023-05-05T08:23:04.680Z,9.95
2023-05-05T08:25:31.619Z,9.23
2023-05-05T08:27:58.512Z,8.38
2023-05-05T08:30:25.374Z,7.78
2023-05-05T08:32:52.181Z,8.75
2023-05-05T08:35:19.081Z,8.98
2023-05-05T08:37:45.974Z,8.60
2023-05-05T08:40:13.650Z,10.82
2023-05-05T08:42:41.084Z,10.00
2023-05-05T08:45:09.963Z,8.98
2023-05-05T08:47:38.382Z,8.38
2023-05-05T08:50:07.138Z,11.10
2023-05-05T08:52:42.912Z,10.80
2023-05-05T08:55:18.189Z,9.43
2023-05-05T08:57:53.201Z,8.88
2023-05-05T09:00:21.317Z,8.50
2023-05-05T09:02:48.833Z,9.63
2023-05-05T09:05:17.773Z,10.82
2023-05-05T09:07:45.053Z,11.52
2023-05-05T09:10:12.557Z,11.07
2023-05-05T09:12:39.992Z,12.73
2023-05-05T09:15:13.915Z,10.73
2023-05-05T09:17:41.897Z,10.57
2023-05-05T09:20:13.399Z,9.18
2023-05-05T09:22:42.252Z,12.63
2023-05-05T09:25:11.681Z,10.70
2023-05-05T09:27:41.053Z,11.87
2023-05-05T09:30:09.752Z,11.10
2023-05-05T09:33:05.044Z,10.07
2023-05-05T09:35:52.659Z,11.98
2023-05-05T09:38:20.827Z,9.77
2023-05-05T09:40:52.493Z,10.37
2023-05-05T09:43:23.795Z,14.23
2023-05-05T09:45:51.085Z,10.07
2023-05-05T09:48:28.804Z,9.38
2023-05-05T09:50:56.746Z,13.25
2023-05-05T09:53:25.075Z,10.87
2023-05-05T09:56:00.259Z,9.57
2023-05-05T09:58:29.601Z,10.15
2023-05-05T10:00:58.297Z,12.43
2023-05-05T10:03:25.729Z,11.13
2023-05-05T10:05:55.949Z,9.33
2023-05-05T10:08:25.505Z,10.77
2023-05-05T10:11:03.230Z,11.65
2023-05-05T10:13:30.958Z,12.13
2023-05-05T10:15:59.725Z,9.57
2023-05-05T10:18:28.397Z,11.47
2023-05-05T10:21:00.219Z,10.30
2023-05-05T10:23:41.550Z,9.57
2023-05-05T10:26:10.522Z,8.07
2023-05-05T10:28:56.273Z,10.75
2023-05-05T10:31:49.921Z,8.13
2023-05-05T10:34:34.303Z,9.98
2023-05-05T10:37:01.487Z,10.23
2023-05-05T10:39:29.232Z,8.65
2023-05-05T10:42:00.446Z,9.73
2023-05-05T10:44:30.280Z,8.60
2023-05-05T10:46:58.154Z,7.50
2023-05-05T10:50:04.421Z,9.63
2023-05-05T10:52:52.807Z,14.23
2023-05-05T10:55:54.266Z,9.02
2023-05-05T10:58:51.036Z,9.97
2023-05-05T11:01:31.565Z,9.43
2023-05-05T11:04:21.891Z,10.35
2023-05-05T11:07:14.637Z,7.70
2023-05-05T11:10:20.677Z,6.95
2023-05-05T11:12:56.826Z,10.30
2023-05-05T11:15:27.033Z,8.88
2023-05-05T11:18:07.001Z,7.55
2023-05-05T11:20:37.502Z,7.25
2023-05-05T11:23:05.013Z,9.27
2023-05-05T11:25:34.834Z,7.33
2023-05-05T11:28:15.188Z,9.73
2023-05-05T11:30:57.849Z,7.45
2023-05-05T11:33:26.505Z,7.80
2023-05-05T11:36:00.216Z,9.32
2023-05-05T11:38:43.473Z,9.27
2023-05-05T11:41:10.202Z,7.38
2023-05-05T11:43:36.986Z,7.57
2023-05-05T11:46:16.957Z,8.38
2023-05-05T11:48:52.902Z,6.90
2023-05-05T11:51:20.167Z,7.23
2023-05-05T11:53:48.711Z,9.25
2023-05-05T11:56:17.448Z,8.13
2023-05-05T11:58:45.268Z,5.20
2023-05-05T12:01:12.317Z,8.32
2023-05-05T12:03:39.988Z,7.40
2023-05-05T12:06:08.370Z,7.25
2023-05-05T12:08:39.652Z,6.03
2023-05-05T12:11:11.032Z,6.80
2023-05-05T12:13:38.128Z,6.50
2023-05-05T12:16:15.835Z,5.03
2023-05-05T12:18:42.807Z,6.68
2023-05-05T12:21:20.057Z,5.38
2023-05-05T12:23:46.926Z,6.63
2023-05-05T12:26:32.249Z,5.65
2023-05-05T12:29:00.361Z,6.50
2023-05-05T12:31:40.325Z,4.35
2023-05-05T12:34:09.164Z,4.45
2023-05-05T12:36:37.566Z,5.03
2023-05-05T12:39:05.337Z,4.60
2023-05-05T12:41:32.961Z,5.63
2023-05-05T12:44:01.320Z,7.47
2023-05-05T12:46:29.133Z,6.28
2023-05-05T12:49:04.576Z,16.92
2023-05-05T12:51:32.963Z,6.30
2023-05-05T12:54:10.615Z,3.77
2023-05-05T12:56:45.533Z,4.00
2023-05-05T12:59:29.151Z,5.00
2023-05-05T13:02:00.968Z,5.05
2023-05-05T13:04:28.732Z,3.80
2023-05-05T13:07:12.792Z,4.40
2023-05-05T13:09:39.645Z,4.60
2023-05-05T13:12:06.813Z,3.65
2023-05-05T13:14:34.915Z,5.05
2023-05-05T13:17:01.886Z,3.83
2023-05-05T13:19:28.842Z,4.07
2023-05-05T13:21:56.539Z,4.10
2023-05-05T13:24:38.141Z,4.05
2023-05-05T13:27:09.693Z,4.18
2023-05-05T13:29:36.694Z,5.63
2023-05-05T13:32:03.771Z,5.13
2023-05-05T13:34:30.552Z,3.13
2023-05-05T13:36:57.553Z,3.10
2023-05-05T13:39:24.328Z,4.85
2023-05-05T13:41:51.371Z,3.70
2023-05-05T13:44:18.177Z,3.73
2023-05-05T13:46:45.672Z,3.50
2023-05-05T13:49:12.503Z,3.55
2023-05-05T13:51:39.344Z,6.18
2023-05-05T13:54:07.058Z,2.75
2023-05-05T13:56:34.698Z,4.00
2023-05-05T13:59:01.845Z,3.55
2023-05-05T14:01:28.723Z,2.92
2023-05-05T14:03:57.562Z,2.80
2023-05-05T14:06:24.957Z,3.53
2023-05-05T14:08:51.903Z,2.60
2023-05-05T14:11:20.044Z,6.28
2023-05-05T14:13:47.044Z,6.97
2023-05-05T14:16:14.187Z,3.28
2023-05-05T14:18:41.910Z,3.40
2023-05-05T14:21:08.860Z,2.90
2023-05-05T14:23:35.676Z,4.28
2023-05-05T14:26:02.517Z,3.60
2023-05-05T14:28:29.398Z,4.28
2023-05-05T14:30:56.187Z,2.95
2023-05-05T14:33:22.974Z,3.10
2023-05-05T14:35:49.933Z,3.15
2023-05-05T14:38:16.794Z,3.28
2023-05-05T14:40:43.938Z,3.45
2023-05-05T14:43:10.774Z,3.30
2023-05-05T14:45:37.729Z,3.57
2023-05-05T14:48:04.685Z,4.00
2023-05-05T14:50:31.578Z,2.60
2023-05-05T14:52:58.436Z,4.10
2023-05-05T14:55:25.245Z,3.45
2023-05-05T14:57:52.140Z,4.37
2023-05-05T15:00:19.530Z,3.88
2023-05-05T15:02:46.404Z,3.20
2023-05-05T15:05:13.445Z,3.95
2023-05-05T15:07:40.565Z,3.35
2023-05-05T15:10:07.801Z,4.93
2023-05-05T15:12:34.596Z,2.53
2023-05-05T15:15:01.776Z,3.53
2023-05-05T15:17:28.740Z,2.88
2023-05-05T15:19:55.478Z,3.55
2023-05-05T15:22:22.254Z,2.60
2023-05-05T15:24:49.129Z,3.53
2023-05-05T15:27:15.978Z,4.00
2023-05-05T15:29:42.826Z,3.35
2023-05-05T15:32:09.727Z,2.83
2023-05-05T15:34:36.431Z,3.23
2023-05-05T15:37:04.716Z,2.63
2023-05-05T15:39:31.442Z,5.22
2023-05-05T15:42:00.883Z,3.65
2023-05-05T15:44:27.812Z,4.25
2023-05-05T15:46:54.921Z,2.70
2023-05-05T15:49:21.966Z,3.70
2023-05-05T15:51:49.052Z,3.10
2023-05-05T15:54:15.848Z,3.05
2023-05-05T15:56:42.785Z,5.25
2023-05-05T15:59:10.059Z,2.17
2023-05-05T16:01:36.982Z,2.35
2023-05-05T16:04:04.050Z,3.90
2023-05-05T16:06:31.688Z,3.58
2023-05-05T16:08:58.876Z,4.22
2023-05-05T16:11:26.988Z,3.33
2023-05-05T16:13:53.918Z,3.10
2023-05-05T16:16:21.452Z,2.90
2023-05-05T16:18:49.252Z,3.60
2023-05-05T16:21:16.369Z,2.17
2023-05-05T16:23:43.398Z,4.20
2023-05-05T16:26:10.182Z,2.35
2023-05-05T16:28:37.000Z,2.28
2023-05-05T16:31:04.118Z,3.30
2023-05-05T16:33:32.115Z,2.83
2023-05-05T16:35:59.374Z,3.70
2023-05-05T16:38:26.679Z,3.17
2023-05-05T16:40:54.880Z,2.58
2023-05-05T16:43:22.965Z,3.42
2023-05-05T16:45:49.985Z,3.42
2023-05-05T16:48:16.849Z,2.50
2023-05-05T16:50:44.399Z,2.83
2023-05-05T16:53:11.435Z,2.38
2023-05-05T16:55:38.515Z,2.83
2023-05-05T16:58:06.359Z,2.40
2023-05-05T17:00:33.232Z,3.50
2023-05-05T17:03:00.185Z,2.92
2023-05-05T17:05:27.041Z,2.85
2023-05-05T17:07:54.207Z,4.47
2023-05-05T17:10:21.301Z,4.25
2023-05-05T17:12:48.402Z,3.70
2023-05-05T17:15:15.316Z,3.63
2023-05-05T17:17:43.741Z,3.25
2023-05-05T17:20:11.387Z,3.20
2023-05-05T17:22:38.401Z,3.55
2023-05-05T17:25:05.855Z,2.70
2023-05-05T17:27:32.852Z,3.85
2023-05-05T17:29:59.625Z,4.15
2023-05-05T17:32:32.503Z,2.47
2023-05-05T17:34:59.425Z,2.92
2023-05-05T17:37:29.765Z,2.33
2023-05-05T17:39:57.736Z,5.25
2023-05-05T17:42:24.530Z,4.00
2023-05-05T17:44:51.870Z,3.05
2023-05-05T17:47:19.035Z,4.60
2023-05-05T17:49:46.880Z,4.40
2023-05-05T17:52:15.006Z,4.82
2023-05-05T17:54:42.109Z,2.72
2023-05-05T17:57:34.053Z,3.55
2023-05-05T18:00:04.176Z,3.92
2023-05-05T18:02:39.808Z,2.83
2023-05-05T18:05:09.678Z,4.15
2023-05-05T18:07:37.390Z,2.40
2023-05-05T18:10:05.618Z,2.90
2023-05-05T18:12:34.659Z,3.92
2023-05-05T18:15:03.375Z,4.33
2023-05-05T18:17:30.245Z,3.50
2023-05-05T18:19:57.303Z,3.60
2023-05-05T18:22:24.042Z,4.32
2023-05-05T18:24:51.937Z,3.90
2023-05-05T18:27:20.494Z,3.80
2023-05-05T18:29:47.844Z,3.97
2023-05-05T18:32:14.624Z,4.80
2023-05-05T18:34:41.485Z,4.03
2023-05-05T18:37:08.459Z,4.70
2023-05-05T18:39:35.369Z,4.20
2023-05-05T18:42:02.185Z,5.15
2023-05-05T18:44:29.214Z,3.25
2023-05-05T18:46:56.291Z,3.22
2023-05-05T18:49:23.154Z,4.63
2023-05-05T18:51:49.943Z,3.43
2023-05-05T18:54:16.716Z,2.75
2023-05-05T18:56:44.319Z,3.92
2023-05-05T18:59:11.428Z,4.90
2023-05-05T19:01:38.540Z,4.00
2023-05-05T19:04:10.444Z,4.33
2023-05-05T19:06:43.317Z,4.03
2023-05-05T19:09:10.910Z,3.15
2023-05-05T19:11:37.617Z,3.40
2023-05-05T19:14:04.476Z,4.30
2023-05-05T19:16:31.249Z,4.40
2023-05-05T19:18:58.181Z,2.92
2023-05-05T19:21:27.113Z,3.30
2023-05-05T19:23:53.947Z,3.78
2023-05-05T19:26:20.701Z,4.30
2023-05-05T19:28:47.513Z,3.53
2023-05-05T19:31:14.902Z,3.80
2023-05-05T19:33:41.734Z,5.38
2023-05-05T19:36:08.559Z,4.00
2023-05-05T19:38:35.382Z,3.95
2023-05-05T19:41:02.271Z,3.47
2023-05-05T19:43:32.451Z,4.00
2023-05-05T19:45:59.418Z,3.85
2023-05-05T19:48:26.408Z,3.95
2023-05-05T19:50:53.387Z,3.72
2023-05-05T19:53:20.273Z,3.73
2023-05-05T19:55:47.142Z,5.07
2023-05-05T19:58:14.993Z,5.45
2023-05-05T20:00:42.337Z,2.90
2023-05-05T20:03:09.323Z,3.55
2023-05-05T20:05:37.006Z,4.50
2023-05-05T20:08:04.027Z,4.38
2023-05-05T20:10:30.980Z,3.97
2023-05-05T20:12:57.942Z,3.92
2023-05-05T20:15:24.751Z,4.32
2023-05-05T20:17:51.680Z,5.23
2023-05-05T20:20:21.448Z,3.50
2023-05-05T20:22:49.653Z,4.07
2023-05-05T20:25:17.376Z,3.90
2023-05-05T20:27:44.831Z,3.83
2023-05-05T20:30:12.018Z,4.87
2023-05-05T20:32:39.712Z,4.32
2023-05-05T20:35:07.178Z,3.30
2023-05-05T20:37:34.047Z,3.10
2023-05-05T20:40:00.898Z,4.88
2023-05-05T20:42:28.045Z,4.33
2023-05-05T20:44:55.051Z,3.45
2023-05-05T20:47:22.005Z,4.78
2023-05-05T20:49:49.439Z,3.88
2023-05-05T20:52:16.141Z,3.55
2023-05-05T20:54:43.041Z,5.90
2023-05-05T20:57:09.859Z,6.13
2023-05-05T20:59:37.867Z,3.78
2023-05-05T21:02:04.840Z,3.63
2023-05-05T21:04:31.848Z,4.90
2023-05-05T21:06:58.715Z,4.93
2023-05-05T21:09:25.774Z,4.03
2023-05-05T21:11:52.730Z,3.72
2023-05-05T21:14:19.627Z,6.00
2023-05-05T21:16:46.520Z,6.35
2023-05-05T21:19:13.496Z,4.13
2023-05-05T21:21:40.380Z,3.92
2023-05-05T21:24:08.183Z,3.88
2023-05-05T21:26:35.131Z,3.83
2023-05-05T21:29:01.936Z,4.07
2023-05-05T21:31:29.988Z,4.73
2023-05-05T21:33:57.338Z,4.40
2023-05-05T21:36:24.383Z,4.47
2023-05-05T21:38:51.177Z,3.67
2023-05-05T21:41:17.906Z,4.82
2023-05-05T21:43:44.977Z,3.07
2023-05-05T21:46:11.810Z,3.72
2023-05-05T21:48:39.380Z,3.40
2023-05-05T21:51:06.336Z,3.60
2023-05-05T21:53:33.146Z,5.65
2023-05-05T21:56:00.216Z,5.37
2023-05-05T21:58:27.086Z,4.50
2023-05-05T22:00:54.024Z,4.00
2023-05-05T22:03:21.661Z,3.65
2023-05-05T22:05:48.664Z,3.83
2023-05-05T22:08:15.611Z,3.70
2023-05-05T22:10:42.930Z,3.05
2023-05-05T22:13:10.754Z,4.78
2023-05-05T22:15:45.821Z,3.42
2023-05-05T22:18:14.780Z,3.90
2023-05-05T22:20:41.844Z,4.90
2023-05-05T22:23:08.758Z,4.07
2023-05-05T22:25:35.760Z,4.00
2023-05-05T22:28:02.683Z,4.20
2023-05-05T22:30:29.529Z,4.57
2023-05-05T22:32:56.386Z,4.10
2023-05-05T22:35:23.248Z,3.53
2023-05-05T22:37:49.993Z,3.90
2023-05-05T22:40:16.847Z,4.40
2023-05-05T22:42:43.782Z,4.35
2023-05-05T22:45:11.351Z,4.60
2023-05-05T22:47:38.937Z,5.55
2023-05-05T22:50:06.298Z,6.15
2023-05-05T22:52:33.184Z,4.25
2023-05-05T22:54:59.931Z,5.25
2023-05-05T22:57:26.898Z,5.73
2023-05-05T22:59:53.772Z,4.00
2023-05-05T23:02:20.519Z,5.05
2023-05-05T23:04:47.746Z,6.80
2023-05-05T23:07:14.505Z,4.47
2023-05-05T23:09:42.110Z,5.40
2023-05-05T23:12:08.876Z,4.95
2023-05-05T23:14:36.105Z,5.18
2023-05-05T23:20:19.109Z,5.15
2023-05-05T23:22:46.097Z,5.63
2023-05-05T23:25:12.992Z,4.53
2023-05-05T23:27:40.062Z,5.13
2023-05-05T23:30:08.889Z,5.07
2023-05-05T23:32:35.789Z,4.32
2023-05-05T23:35:02.718Z,6.33
2023-05-05T23:37:29.646Z,5.10
2023-05-05T23:39:56.939Z,5.32
2023-05-05T23:42:24.501Z,4.90
2023-05-05T23:44:51.661Z,4.70
2023-05-05T23:47:18.461Z,5.50
2023-05-05T23:49:45.445Z,4.93
2023-05-05T23:52:13.361Z,5.22
2023-05-05T23:54:40.640Z,4.80
2023-05-05T23:57:07.426Z,5.72
2023-05-05T23:59:34.960Z,5.57
